Gillette, WY

9:00 PM MDT on July 27, 2015 (GMT -0600)
Gillette-Campbell County | | Change Station
CLOSE
Current Station
Airport
Location: Gillette,
Elevation: 4364 ft
Nearby Weather Stations
Active Advisory: Fire Weather Warning Active Notice: Local Storm Report

Elev 4364 ft 44.34 °N, 105.54 °W | Updated 7 minutes ago

Clear
Clear
56 °F
Feels Like 56 °F
N
20
Wind Variable Wind from NNW
Gusts 24 mph

Today
High -- | Low -- °F
--% Chance of Precip.
Yesterday
High -- | Low -- °F
Precip. -- in
5:43 AM 8:34 PM
Waxing Gibbous, 86% visible
Pressure 29.77 in
Visibility 10.0 miles
Clouds Clear
Dew Point 47 °F
Humidity 72%
Rainfall 0.03 in
Snow Depth Not available.
UV 0 out of 12
Pollen 5.00 out of 12
Air Quality Not available.
Flu Activity Not available.
METAR KGCC 280253Z AUTO 33017G21KT 10SM CLR 13/08 A2989 RMK AO2 PK WND 32034/0157 SLP080 T01330083 53061 $

More Conditions Fewer Conditions

Pressure 29.77 in
Visibility 10.0 miles
Clouds Clear
Dew Point 47 °F
Humidity 72%
Rainfall 0.03 in
Snow Depth Not available.
UV 0 out of 12
Pollen 5.00 out of 12
Air Quality Not available.
Flu Activity Not available.
METAR KGCC 280253Z AUTO 33017G21KT 10SM CLR 13/08 A2989 RMK AO2 PK WND 32034/0157 SLP080 T01330083 53061 $

More Conditions Fewer Conditions

10-Day Weather Forecast

×

Almanac

Astronomy

Jul. 27, 2015 Rise Set
Actual Time
Civil Twilight
Nautical Twilight
Astronomical Twilight
Moon
Length of Visible Light
Length of Day
Tomorrow will be .
, % of the Moon is Illuminated

Today's Extremes

State Highs State Lows

Community

WunderPhotos

Upload Photos

1,841,780 photos uploaded!

WunderBlogs® & News

Nearby

Air Quality

  Air Quality AQ Index Pollutant
Not available.

Snow Depth

Station Depth Elevation

Earthquake Activity

City Distance Mag. Time & Date
Minimum magnitude displayed is 2.5.

Coastal Water Temperatures

Place Temperature

Stations

Nearby Weather Stations

Station Location Temp. Windchill Dew Point Humidity Wind Precip. Elev Updated Type
                   
Fire Weather Warning
Statement as of 1:46 PM MDT on July 27, 2015

... Red flag warning remains in effect until midnight MDT tonight
for gusty winds and low relative humidity for fire weather zones
259... 297 and 298...

* affected area... fire weather zones 259... 297 and 298.

* Winds... west 15 to 30 mph with gusts up to 45 mph... becoming
northwest this evening

* relative humidity... as low as 10 percent.

* Impacts... wildfires can spread rapidly in the very dry fuels.

Precautionary/preparedness actions...

A red flag warning means that critical fire weather conditions
are either occurring now... or will shortly. A combination of
strong winds... low relative humidity... and warm temperatures can
contribute to extreme fire behavior.